Time;durP1;ratioP1;P1;durP2;ratioP2;P2;SDS_P1;SDS_P2;PMS_P1;PMS_P2;Temp;Humidity;BMP_temperature;BMP_pressure;BME280_temperature;BME280_humidity;BME280_pressure;Samples;Min_cycle;Max_cycle;Signal;HPM_P1;HPM_P2
2021/03/14 00:00:53;;;;;;;10.90;0.70;;;;;;;2.06;58.63;99423.03;5046946;28;20378;-71
2021/03/14 00:03:20;;;;;;;11.48;1.33;;;;;;;2.51;57.02;99437.22;5034427;28;20044;-71
2021/03/14 00:05:47;;;;;;;8.00;0.45;;;;;;;2.30;58.01;99447.28;5029521;28;20037;-71
2021/03/14 00:08:15;;;;;;;5.05;1.15;;;;;;;2.49;56.70;99444.19;5032797;28;20037;-71
2021/03/14 00:10:43;;;;;;;7.72;0.50;;;;;;;2.42;57.52;99450.41;5035030;28;20029;-70
2021/03/14 00:13:10;;;;;;;5.28;0.32;;;;;;;2.88;55.97;99447.28;5037010;28;20037;-70
2021/03/14 00:15:35;;;;;;;5.68;0.47;;;;;;;2.38;57.30;99456.53;5022566;28;20050;-71
2021/03/14 00:18:01;;;;;;;12.32;0.52;;;;;;;2.04;58.31;99460.91;5034020;28;20029;-71
2021/03/14 00:20:27;;;;;;;3.95;0.68;;;;;;;2.61;56.86;99471.34;5040826;28;20451;-71
2021/03/14 00:22:52;;;;;;;5.80;0.50;;;;;;;2.36;57.40;99472.06;5037175;28;20031;-71
2021/03/14 00:25:18;;;;;;;10.10;0.70;;;;;;;2.56;56.87;99482.63;5029590;28;20987;-71
2021/03/14 00:27:44;;;;;;;9.15;0.73;;;;;;;2.85;55.84;99485.25;5049651;28;20052;-71
2021/03/14 00:30:13;;;;;;;4.28;0.50;;;;;;;2.77;56.30;99496.63;5018656;28;20103;-71
2021/03/14 00:32:40;;;;;;;7.80;0.93;;;;;;;2.43;56.87;99488.19;5031760;28;20165;-70
2021/03/14 00:35:07;;;;;;;8.90;0.65;;;;;;;2.29;57.20;99492.00;5013521;28;20032;-70
2021/03/14 00:37:33;;;;;;;3.42;0.77;;;;;;;2.79;56.07;99500.91;5022103;28;20128;-70
2021/03/14 00:39:58;;;;;;;5.50;0.30;;;;;;;2.49;56.88;99503.50;5030074;28;20904;-70
2021/03/14 00:42:24;;;;;;;4.25;0.70;;;;;;;1.98;58.25;99517.78;5033734;28;21175;-70
2021/03/14 00:44:50;;;;;;;8.13;1.00;;;;;;;2.06;58.36;99512.41;5039647;28;20110;-72
2021/03/14 00:47:15;;;;;;;4.20;0.22;;;;;;;3.09;55.81;99519.78;5022735;28;20052;-70
2021/03/14 00:49:41;;;;;;;3.25;0.50;;;;;;;2.35;57.24;99527.06;5028095;28;20152;-70
2021/03/14 00:52:06;;;;;;;7.50;1.17;;;;;;;2.39;57.43;99533.00;5037534;28;20862;-70
2021/03/14 00:54:34;;;;;;;3.55;0.20;;;;;;;2.70;56.75;99538.16;5036748;28;20029;-70
2021/03/14 00:57:00;;;;;;;4.55;0.63;;;;;;;2.69;57.22;99532.16;5031920;28;20036;-70
2021/03/14 00:59:26;;;;;;;4.93;0.30;;;;;;;2.55;57.78;99540.28;5031605;28;20092;-70
2021/03/14 01:01:51;;;;;;;5.63;0.40;;;;;;;2.35;58.50;99548.56;5026439;28;20024;-71
2021/03/14 01:04:17;;;;;;;6.47;1.10;;;;;;;2.89;56.93;99556.50;5031612;28;20040;-70
2021/03/14 01:06:42;;;;;;;3.65;0.57;;;;;;;2.61;58.13;99559.91;5031627;28;20041;-71
2021/03/14 01:09:08;;;;;;;9.07;0.55;;;;;;;2.42;58.51;99563.84;5031262;28;20041;-70
2021/03/14 01:11:34;;;;;;;6.22;1.00;;;;;;;2.43;58.84;99575.88;5024514;28;20040;-70
2021/03/14 01:14:03;;;;;;;7.07;0.77;;;;;;;2.48;58.53;99574.84;5033926;28;20117;-70
2021/03/14 01:16:37;;;;;;;9.60;1.13;;;;;;;2.48;58.58;99581.75;5026645;28;20025;-70
2021/03/14 01:19:05;;;;;;;6.22;0.45;;;;;;;2.49;58.37;99589.47;5040561;28;20037;-70
2021/03/14 01:21:31;;;;;;;6.93;0.45;;;;;;;2.55;58.11;99591.00;5033311;28;20037;-70
2021/03/14 01:23:57;;;;;;;6.93;0.95;;;;;;;2.67;57.96;99601.00;5020709;28;20512;-69
2021/03/14 01:26:23;;;;;;;4.63;0.30;;;;;;;2.15;59.19;99604.94;5030052;28;20532;-70
2021/03/14 01:28:48;;;;;;;6.50;0.77;;;;;;;2.22;58.96;99613.38;5028710;28;20052;-70
2021/03/14 01:31:14;;;;;;;5.97;0.85;;;;;;;2.50;58.15;99608.34;5016025;28;20526;-71
2021/03/14 01:33:40;;;;;;;5.13;1.08;;;;;;;2.73;57.27;99626.66;5035584;28;20654;-71
2021/03/14 01:36:06;;;;;;;5.25;0.80;;;;;;;2.83;57.27;99623.81;5026267;28;20043;-70
2021/03/14 01:38:32;;;;;;;4.82;0.40;;;;;;;3.31;55.88;99628.47;5042653;28;20025;-70
2021/03/14 01:40:58;;;;;;;8.27;0.73;;;;;;;2.83;56.98;99631.56;5039675;28;20040;-71
2021/03/14 01:43:23;;;;;;;8.55;0.60;;;;;;;3.06;56.73;99638.63;5023279;28;20880;-70
2021/03/14 01:45:49;;;;;;;7.68;0.32;;;;;;;3.40;55.34;99641.09;5033823;28;20116;-70
2021/03/14 01:48:22;;;;;;;2.97;0.50;;;;;;;3.17;56.02;99641.75;5038913;28;20036;-70
2021/03/14 01:50:47;;;;;;;5.78;0.40;;;;;;;2.23;57.33;99646.88;5042301;28;20043;-70
2021/03/14 01:53:13;;;;;;;15.25;2.20;;;;;;;3.02;56.01;99648.19;5039090;28;20458;-70
2021/03/14 01:55:39;;;;;;;9.25;0.60;;;;;;;2.68;56.72;99656.88;5028306;28;20447;-70
2021/03/14 01:58:04;;;;;;;11.35;0.73;;;;;;;2.69;56.54;99660.28;5041176;28;20044;-70
2021/03/14 02:00:31;;;;;;;5.40;0.60;;;;;;;2.52;56.92;99658.16;5039281;28;20037;-70
2021/03/14 02:02:57;;;;;;;3.55;0.35;;;;;;;3.03;55.20;99669.72;5043639;28;20033;-70
2021/03/14 02:05:22;;;;;;;5.25;0.73;;;;;;;2.90;55.80;99671.78;5036824;28;20035;-70
2021/03/14 02:07:50;;;;;;;3.05;0.32;;;;;;;2.46;57.24;99678.94;5038790;28;20036;-70
2021/03/14 02:10:20;;;;;;;4.57;0.75;;;;;;;2.83;56.24;99680.59;5041200;28;20133;-72
2021/03/14 02:12:58;;;;;;;11.18;1.75;;;;;;;3.23;55.08;99682.91;5046647;28;20460;-71
2021/03/14 02:15:27;;;;;;;17.27;2.38;;;;;;;2.65;56.75;99685.34;5035113;28;20589;-70
2021/03/14 02:17:56;;;;;;;13.48;0.50;;;;;;;2.83;56.42;99688.31;5036904;28;20056;-70
2021/03/14 02:20:26;;;;;;;11.30;0.68;;;;;;;3.10;55.70;99697.88;5033303;28;20447;-70
2021/03/14 02:23:03;;;;;;;13.82;0.80;;;;;;;2.91;56.24;99697.56;5041683;28;20037;-70
2021/03/14 02:25:35;;;;;;;3.50;0.25;;;;;;;2.51;57.24;99697.72;5036637;28;20033;-72
2021/03/14 02:28:03;;;;;;;2.28;0.20;;;;;;;3.01;56.01;99708.47;5034830;28;20480;-70
2021/03/14 02:30:29;;;;;;;5.13;1.00;;;;;;;2.59;57.58;99708.72;5037238;28;20064;-72
2021/03/14 02:32:55;;;;;;;11.63;0.60;;;;;;;2.60;57.49;99718.16;5022573;28;20065;-70
2021/03/14 02:35:21;;;;;;;10.80;0.38;;;;;;;2.91;56.86;99723.38;5025460;28;20115;-70
2021/03/14 02:37:48;;;;;;;6.38;0.30;;;;;;;3.35;55.67;99717.88;5034441;28;20035;-71
2021/03/14 02:40:14;;;;;;;4.25;0.60;;;;;;;3.33;55.66;99732.56;5035837;28;20024;-70
2021/03/14 02:42:42;;;;;;;11.70;0.43;;;;;;;3.24;56.10;99727.63;5051417;28;20033;-72
2021/03/14 02:45:09;;;;;;;6.78;0.85;;;;;;;3.01;57.19;99734.28;5035676;28;20052;-71
2021/03/14 02:47:36;;;;;;;7.80;1.08;;;;;;;3.22;57.12;99748.34;5038056;28;20112;-73
2021/03/14 02:50:16;;;;;;;10.38;1.45;;;;;;;3.29;56.86;99749.03;5026952;28;20041;-70
2021/03/14 02:52:43;;;;;;;9.45;0.90;;;;;;;2.92;57.90;99757.75;5036242;28;20061;-73
2021/03/14 02:55:10;;;;;;;8.05;1.05;;;;;;;3.13;57.13;99748.59;5036974;28;20120;-70
2021/03/14 02:58:01;;;;;;;14.32;0.98;;;;;;;2.98;57.40;99758.44;5033778;28;20615;-70
2021/03/14 03:00:28;;;;;;;4.07;0.70;;;;;;;3.35;56.86;99765.22;5040871;28;20040;-70
2021/03/14 03:02:56;;;;;;;10.27;1.02;;;;;;;2.88;58.00;99774.22;5038675;28;20393;-70
2021/03/14 03:05:24;;;;;;;6.65;0.60;;;;;;;3.23;57.08;99775.88;5030882;28;20033;-70
2021/03/14 03:07:55;;;;;;;7.15;0.40;;;;;;;2.52;58.98;99782.81;5030317;28;20172;-70
2021/03/14 03:10:31;;;;;;;4.00;0.40;;;;;;;3.20;57.34;99783.69;5031734;28;20116;-70
2021/03/14 03:12:59;;;;;;;10.98;1.38;;;;;;;2.80;58.50;99792.47;5038238;28;20037;-70
2021/03/14 03:15:25;;;;;;;3.25;0.88;;;;;;;3.10;57.52;99798.56;5042358;28;20611;-70
2021/03/14 03:17:51;;;;;;;7.78;0.88;;;;;;;2.67;58.77;99804.84;5035596;28;20048;-70
2021/03/14 03:20:18;;;;;;;13.05;0.85;;;;;;;3.23;57.39;99812.03;5035434;28;20037;-70
2021/03/14 03:22:44;;;;;;;6.70;0.60;;;;;;;3.09;57.69;99804.63;5031628;28;20535;-70
2021/03/14 03:25:10;;;;;;;11.68;0.88;;;;;;;3.37;57.29;99809.09;5032752;28;20033;-69
2021/03/14 03:27:37;;;;;;;14.60;1.05;;;;;;;3.50;56.65;99818.19;5036539;28;20025;-70
2021/03/14 03:30:08;;;;;;;15.63;0.55;;;;;;;3.36;57.63;99804.84;5034675;28;20500;-71
2021/03/14 03:32:35;;;;;;;13.43;0.77;;;;;;;3.56;56.85;99823.22;5019319;28;20083;-70
2021/03/14 03:35:03;;;;;;;7.20;0.85;;;;;;;3.46;57.40;99815.75;5036140;28;20558;-70
2021/03/14 03:37:28;;;;;;;15.85;1.58;;;;;;;3.33;57.92;99818.66;5034971;28;20522;-70
2021/03/14 03:39:54;;;;;;;14.20;1.38;;;;;;;3.51;57.19;99831.97;5035134;28;20041;-70
2021/03/14 03:42:26;;;;;;;18.50;1.65;;;;;;;3.16;58.20;99832.00;5032112;28;20049;-70
2021/03/14 03:44:57;;;;;;;16.13;1.42;;;;;;;3.58;57.01;99824.03;5034501;28;20037;-70
2021/03/14 03:47:25;;;;;;;11.02;0.63;;;;;;;3.58;56.73;99824.03;5035550;28;20033;-71
2021/03/14 03:49:53;;;;;;;8.50;1.13;;;;;;;3.11;57.35;99826.09;5033695;28;20403;-70
2021/03/14 03:52:21;;;;;;;12.20;1.10;;;;;;;3.09;57.51;99845.94;5036285;28;20033;-70
2021/03/14 03:54:48;;;;;;;10.73;2.03;;;;;;;3.64;56.39;99863.50;5036239;28;20039;-70
2021/03/14 03:57:16;;;;;;;15.32;1.10;;;;;;;3.13;58.07;99875.09;5032473;28;20038;-70
2021/03/14 03:59:42;;;;;;;7.25;0.60;;;;;;;3.15;57.97;99876.75;5037263;28;20025;-71
2021/03/14 04:02:10;;;;;;;14.45;0.93;;;;;;;3.30;57.61;99890.22;5041614;28;20124;-70
2021/03/14 04:04:37;;;;;;;9.02;0.40;;;;;;;2.66;58.07;99908.06;5038423;28;20036;-70
2021/03/14 04:07:06;;;;;;;1.92;0.10;;;;;;;2.11;57.98;99904.97;5037295;28;20061;-69
2021/03/14 04:09:32;;;;;;;4.22;0.13;;;;;;;2.25;57.42;99905.50;5035403;28;20029;-70
2021/03/14 04:11:58;;;;;;;1.10;0.25;;;;;;;1.65;59.44;99921.28;5034332;28;20036;-70
2021/03/14 04:14:25;;;;;;;0.60;0.10;;;;;;;1.94;58.76;99929.31;5040164;28;20539;-70
2021/03/14 04:16:52;;;;;;;7.05;0.95;;;;;;;1.72;59.43;99928.88;5035258;28;20045;-70
2021/03/14 04:19:20;;;;;;;2.85;0.10;;;;;;;1.25;59.65;99927.09;5036709;28;20120;-70
2021/03/14 04:21:48;;;;;;;2.58;1.00;;;;;;;1.74;59.27;99952.03;5041185;28;20032;-70
2021/03/14 04:24:16;;;;;;;1.42;0.20;;;;;;;1.47;60.09;99943.06;5034022;28;20059;-70
2021/03/14 04:26:43;;;;;;;2.22;0.10;;;;;;;1.70;59.26;99950.38;5032524;28;20025;-70
2021/03/14 04:29:11;;;;;;;7.45;0.20;;;;;;;1.69;59.20;99949.53;5036890;28;20133;-69
2021/03/14 04:31:40;;;;;;;1.35;0.10;;;;;;;1.71;58.81;99958.09;5035569;28;20029;-70
2021/03/14 04:34:09;;;;;;;1.98;0.10;;;;;;;1.65;59.12;99952.22;5019703;28;20415;-70
2021/03/14 04:36:35;;;;;;;1.17;0.08;;;;;;;1.48;59.37;99967.94;5034576;28;20048;-69
2021/03/14 04:39:02;;;;;;;1.13;0.10;;;;;;;1.23;60.04;99978.59;5025543;28;20459;-70
2021/03/14 04:41:28;;;;;;;0.85;0.00;;;;;;;1.96;57.80;99983.41;5037545;28;20037;-69
2021/03/14 04:43:55;;;;;;;3.10;0.10;;;;;;;1.82;57.97;100000.84;5041291;28;20349;-70
2021/03/14 04:46:20;;;;;;;2.40;0.00;;;;;;;1.55;58.28;99991.88;5020329;28;20029;-70
2021/03/14 04:48:46;;;;;;;1.00;0.00;;;;;;;1.77;57.57;100002.66;5036303;28;20033;-70
2021/03/14 04:51:13;;;;;;;1.25;0.00;;;;;;;1.93;57.46;99999.78;5033312;28;20493;-70
2021/03/14 04:53:40;;;;;;;1.08;0.20;;;;;;;2.11;56.63;99997.75;5036874;28;20500;-69
2021/03/14 04:56:07;;;;;;;0.85;0.47;;;;;;;2.24;56.42;100004.38;5033215;28;20051;-70
2021/03/14 04:58:33;;;;;;;3.38;0.15;;;;;;;1.81;57.23;100007.72;5018751;28;20025;-70
2021/03/14 05:01:02;;;;;;;3.20;0.13;;;;;;;2.12;56.88;100020.91;5040105;28;20045;-70
2021/03/14 05:03:29;;;;;;;3.95;0.20;;;;;;;2.21;56.78;100009.56;5049813;28;20052;-70
2021/03/14 05:05:55;;;;;;;3.03;0.20;;;;;;;1.62;58.09;100017.50;5040853;28;20036;-69
2021/03/14 05:08:23;;;;;;;0.57;0.10;;;;;;;2.12;57.22;100020.91;5038265;28;20029;-70
2021/03/14 05:10:51;;;;;;;2.45;0.90;;;;;;;1.67;57.87;100030.31;5039892;28;20036;-70
2021/03/14 05:13:18;;;;;;;3.60;0.52;;;;;;;2.58;56.61;100029.50;5040569;28;20120;-70
2021/03/14 05:15:48;;;;;;;2.97;0.40;;;;;;;2.69;55.97;100027.53;5044156;28;20037;-70
2021/03/14 05:18:15;;;;;;;1.73;0.20;;;;;;;2.55;56.63;100034.69;5040269;28;20036;-70
2021/03/14 05:20:41;;;;;;;2.40;0.20;;;;;;;2.28;57.53;100067.88;5039516;28;20029;-70
2021/03/14 05:23:07;;;;;;;3.75;0.10;;;;;;;1.65;58.77;100070.69;5040895;28;20033;-70
2021/03/14 05:25:36;;;;;;;1.10;0.40;;;;;;;2.24;57.31;100073.13;5052935;28;20037;-70
2021/03/14 05:28:03;;;;;;;0.45;0.00;;;;;;;1.85;58.63;100073.78;5026995;28;20056;-70
2021/03/14 05:30:32;;;;;;;3.25;0.10;;;;;;;1.81;58.63;100074.72;5038014;28;20557;-70
2021/03/14 05:32:58;;;;;;;2.20;0.30;;;;;;;2.17;57.86;100071.53;5042013;28;20025;-70
2021/03/14 05:35:27;;;;;;;9.88;0.63;;;;;;;2.17;58.21;100082.69;5034705;28;20037;-70
2021/03/14 05:37:53;;;;;;;2.00;0.15;;;;;;;2.12;58.14;100093.09;5039943;28;20053;-69
2021/03/14 05:40:22;;;;;;;0.55;0.03;;;;;;;1.95;58.55;100095.09;5040139;28;20120;-70
2021/03/14 05:42:48;;;;;;;4.68;0.20;;;;;;;1.84;58.18;100108.19;5041088;28;20029;-70
2021/03/14 05:45:15;;;;;;;0.45;0.10;;;;;;;1.64;58.14;100116.22;5027049;28;20488;-70
2021/03/14 05:47:41;;;;;;;1.88;0.03;;;;;;;1.50;57.67;100100.94;5043400;28;20030;-69
2021/03/14 05:50:09;;;;;;;3.50;0.13;;;;;;;1.55;55.73;100082.00;5040585;28;20029;-70
2021/03/14 05:52:41;;;;;;;7.82;1.58;;;;;;;1.91;54.91;100089.16;5041022;28;20126;-70
2021/03/14 05:55:20;;;;;;;2.35;0.20;;;;;;;2.22;53.46;100104.13;5039293;28;20029;-70
2021/03/14 05:57:48;;;;;;;5.55;0.30;;;;;;;2.39;54.26;100106.38;5039300;28;20048;-70
2021/03/14 06:00:23;;;;;;;2.22;0.28;;;;;;;2.48;54.74;100120.84;5042435;28;20025;-70
2021/03/14 06:02:50;;;;;;;3.67;0.20;;;;;;;3.00;53.97;100124.13;5044147;28;20569;-70
2021/03/14 06:05:17;;;;;;;2.88;0.28;;;;;;;2.98;54.13;100126.75;5023359;28;20029;-70
2021/03/14 06:07:42;;;;;;;7.75;1.02;;;;;;;3.01;54.62;100126.69;5041121;28;20432;-70
2021/03/14 06:10:08;;;;;;;6.65;0.77;;;;;;;3.19;54.79;100131.44;5025110;28;20029;-70
2021/03/14 06:12:34;;;;;;;9.10;0.65;;;;;;;3.25;55.57;100134.78;5040628;28;20501;-70
2021/03/14 06:15:00;;;;;;;9.98;1.23;;;;;;;3.43;55.72;100131.84;5040520;28;20033;-71
2021/03/14 06:17:27;;;;;;;5.45;0.63;;;;;;;3.28;56.47;100142.47;5039071;28;20399;-70
2021/03/14 06:19:54;;;;;;;13.65;0.73;;;;;;;3.45;56.67;100148.16;5039614;28;20033;-70
2021/03/14 06:22:25;;;;;;;12.00;1.15;;;;;;;3.48;56.53;100157.59;5038113;28;20043;-70
2021/03/14 06:24:52;;;;;;;9.73;1.67;;;;;;;3.68;56.22;100150.22;5026878;28;20201;-70
2021/03/14 06:27:38;;;;;;;15.60;1.42;;;;;;;3.59;56.97;100158.19;5037883;28;20138;-71
2021/03/14 06:30:08;;;;;;;20.35;1.35;;;;;;;3.99;56.24;100159.84;5041683;28;20411;-71
2021/03/14 06:32:34;;;;;;;11.63;1.30;;;;;;;4.04;55.81;100167.50;5036318;28;20033;-70
2021/03/14 06:35:35;;;;;;;16.02;1.23;;;;;;;3.18;58.22;100178.84;5043573;28;20049;-70
2021/03/14 06:38:45;;;;;;;18.08;1.67;;;;;;;3.85;57.17;100180.00;5038300;28;20060;-70
2021/03/14 06:41:34;;;;;;;13.93;0.90;;;;;;;3.74;57.22;100190.59;5045949;28;20267;-70
2021/03/14 06:43:59;;;;;;;17.60;1.42;;;;;;;3.59;57.93;100194.38;5024028;28;20412;-70
2021/03/14 06:46:29;;;;;;;18.00;1.67;;;;;;;3.99;56.76;100199.50;5026896;28;20024;-70
2021/03/14 06:49:13;;;;;;;12.85;1.58;;;;;;;4.64;55.45;100209.09;5037865;28;20040;-70
2021/03/14 06:51:46;;;;;;;13.82;1.58;;;;;;;4.73;54.69;100210.59;5040428;28;20544;-71
2021/03/14 06:54:17;;;;;;;17.23;1.42;;;;;;;4.08;55.58;100215.69;5038794;28;20136;-70
2021/03/14 06:57:15;;;;;;;16.17;2.53;;;;;;;4.77;54.76;100224.31;5041034;28;20037;-70
2021/03/14 06:59:48;;;;;;;11.48;0.75;;;;;;;4.67;54.82;100221.09;5027120;28;20333;-70
2021/03/14 07:02:28;;;;;;;9.45;1.13;;;;;;;4.75;54.91;100229.53;5035468;28;20056;-70
2021/03/14 07:05:04;;;;;;;20.08;1.38;;;;;;;5.32;54.50;100233.19;5037901;28;20036;-70
2021/03/14 07:07:37;;;;;;;15.30;2.22;;;;;;;5.34;53.94;100244.34;5036812;28;20033;-70
2021/03/14 07:10:11;;;;;;;13.95;1.02;;;;;;;5.82;52.23;100250.78;5040378;28;20063;-71
2021/03/14 07:12:43;;;;;;;15.80;1.02;;;;;;;5.57;53.09;100258.41;5037350;28;20026;-71
2021/03/14 07:15:28;;;;;;;16.30;0.82;;;;;;;5.35;53.49;100258.19;5041144;28;20518;-71
2021/03/14 07:17:56;;;;;;;14.70;1.92;;;;;;;5.35;53.37;100265.97;5038760;28;20051;-70
2021/03/14 07:20:25;;;;;;;11.68;1.42;;;;;;;5.23;53.85;100262.81;5036244;28;20029;-69
2021/03/14 07:23:01;;;;;;;13.65;1.20;;;;;;;4.81;54.82;100270.81;5041173;28;20044;-72
2021/03/14 07:25:27;;;;;;;13.80;1.73;;;;;;;5.01;54.53;100272.91;5037639;28;20036;-69
2021/03/14 07:27:53;;;;;;;19.90;1.85;;;;;;;4.61;55.02;100278.22;5023868;28;20506;-69
2021/03/14 07:30:25;;;;;;;15.25;2.38;;;;;;;5.30;53.94;100289.41;5035831;28;20025;-69
2021/03/14 07:32:51;;;;;;;;;;;;;;;4.99;54.78;100289.38;5036928;28;20036;-69
2021/03/14 07:35:18;;;;;;;10.10;2.90;;;;;;;5.12;54.28;100290.72;5022334;28;19917;-70
2021/03/14 07:37:44;;;;;;;9.73;0.80;;;;;;;5.20;54.15;100293.97;5025782;28;20098;-70
2021/03/14 07:40:15;;;;;;;14.48;0.90;;;;;;;4.70;54.77;100301.28;5037376;28;20642;-70
2021/03/14 07:42:41;;;;;;;16.15;1.30;;;;;;;4.56;55.58;100300.75;5034769;28;20061;-70
2021/03/14 07:45:13;;;;;;;24.48;1.65;;;;;;;4.70;55.18;100298.72;5037001;28;20044;-69
2021/03/14 07:47:40;;;;;;;19.08;1.02;;;;;;;5.10;54.45;100305.50;5033090;28;20055;-69
2021/03/14 07:50:14;;;;;;;27.30;1.92;;;;;;;5.01;54.89;100310.88;5040046;28;20035;-70
2021/03/14 07:52:41;;;;;;;14.85;1.95;;;;;;;5.19;54.45;100307.84;5039107;28;20083;-70
2021/03/14 07:55:13;;;;;;;10.80;1.40;;;;;;;4.95;54.82;100318.84;5039668;28;20039;-69
2021/03/14 07:57:44;;;;;;;11.07;1.10;;;;;;;5.37;53.94;100326.34;5035249;28;20029;-70
2021/03/14 08:00:30;;;;;;;13.52;1.10;;;;;;;5.14;54.22;100333.00;5033606;28;20120;-69
2021/03/14 08:02:58;;;;;;;13.30;2.05;;;;;;;5.12;54.34;100332.19;5039836;28;20037;-70
2021/03/14 08:05:38;;;;;;;9.55;0.73;;;;;;;4.94;54.77;100343.88;5034760;28;20048;-69
2021/03/14 08:08:05;;;;;;;17.25;1.15;;;;;;;4.71;55.13;100344.41;5039482;28;20048;-70
2021/03/14 08:10:34;;;;;;;13.40;1.58;;;;;;;4.78;54.92;100348.53;5033569;28;20125;-70
2021/03/14 08:13:00;;;;;;;9.07;1.00;;;;;;;4.93;54.45;100355.13;5037598;28;20079;-70
2021/03/14 08:15:28;;;;;;;18.13;2.53;;;;;;;4.82;54.94;100363.13;5025126;28;20048;-69
2021/03/14 08:17:55;;;;;;;10.75;1.70;;;;;;;4.90;55.01;100364.69;5040035;28;20120;-69
2021/03/14 08:20:38;;;;;;;23.33;2.42;;;;;;;5.12;54.89;100373.63;5021366;28;20044;-70
2021/03/14 08:23:05;;;;;;;20.65;1.48;;;;;;;4.92;55.19;100371.56;5039288;28;20505;-70
2021/03/14 08:25:57;;;;;;;28.50;2.75;;;;;;;5.01;55.03;100379.09;5031114;28;20102;-70
2021/03/14 08:28:22;;;;;;;12.15;1.92;;;;;;;5.10;54.90;100383.22;5033041;28;20156;-69
2021/03/14 08:30:50;;;;;;;20.38;1.00;;;;;;;5.23;54.57;100381.13;5020431;28;20571;-70
2021/03/14 08:33:21;;;;;;;15.43;1.48;;;;;;;5.42;53.81;100381.53;5020748;28;20043;-70
2021/03/14 08:36:01;;;;;;;12.07;1.63;;;;;;;5.82;52.78;100390.81;5023764;28;20040;-70
2021/03/14 08:38:30;;;;;;;11.40;0.88;;;;;;;4.93;54.67;100398.31;5017777;28;20052;-69
2021/03/14 08:41:27;;;;;;;5.90;1.58;;;;;;;5.72;53.82;100405.75;5021137;28;20049;-70
2021/03/14 08:44:04;;;;;;;10.70;1.30;;;;;;;5.77;53.42;100403.03;5035610;28;20037;-70
2021/03/14 08:46:48;;;;;;;;;;;;;;;5.82;52.81;100412.41;5035061;28;20040;-70
2021/03/14 08:49:20;;;;;;;11.60;0.75;;;;;;;6.02;51.90;100417.03;5024798;28;19978;-70
2021/03/14 08:51:47;;;;;;;12.07;2.03;;;;;;;5.83;52.60;100413.25;5040871;28;20516;-70
2021/03/14 08:54:14;;;;;;;13.77;1.20;;;;;;;6.14;52.38;100412.41;5017906;28;20033;-70
2021/03/14 08:56:41;;;;;;;14.85;0.90;;;;;;;6.01;52.00;100412.72;5037414;28;20053;-70
2021/03/14 08:59:09;;;;;;;5.35;1.80;;;;;;;6.26;51.05;100412.91;5032991;28;20085;-70
2021/03/14 09:01:39;;;;;;;10.30;1.23;;;;;;;6.32;50.94;100413.63;5018398;28;20040;-72
2021/03/14 09:04:19;;;;;;;13.48;1.20;;;;;;;6.07;52.33;100427.28;5036175;28;22195;-71
2021/03/14 09:07:12;;;;;;;12.40;1.38;;;;;;;6.77;51.20;100428.72;5026670;28;20045;-70
2021/03/14 09:09:42;;;;;;;5.82;0.80;;;;;;;6.82;49.68;100432.88;5034657;28;20044;-70
2021/03/14 09:12:58;;;;;;;12.95;0.90;;;;;;;7.40;49.00;100434.47;5029390;28;20045;-70
2021/03/14 09:15:48;;;;;;;6.38;0.75;;;;;;;6.10;50.37;100442.75;5038464;28;20035;-70
2021/03/14 09:18:47;;;;;;;7.43;0.38;;;;;;;6.33;50.89;100443.88;5021191;28;20516;-70
2021/03/14 09:21:13;;;;;;;7.82;1.33;;;;;;;5.79;51.33;100442.75;5028821;28;20033;-70
2021/03/14 09:23:44;;;;;;;6.17;0.80;;;;;;;5.83;51.86;100449.56;5018103;28;20528;-70
2021/03/14 09:26:27;;;;;;;6.25;1.10;;;;;;;5.93;51.75;100461.41;5022402;28;20270;-71
2021/03/14 09:28:53;;;;;;;8.18;0.90;;;;;;;5.96;52.13;100460.47;5038211;28;20034;-70
2021/03/14 09:31:19;;;;;;;9.63;0.60;;;;;;;5.81;51.52;100457.38;5032051;28;20345;-70
2021/03/14 09:34:02;;;;;;;8.38;0.80;;;;;;;5.51;52.68;100458.19;5018190;28;20072;-70
2021/03/14 09:36:47;;;;;;;8.68;0.80;;;;;;;5.48;52.20;100463.44;5034983;28;20118;-70
2021/03/14 09:39:21;;;;;;;11.15;0.68;;;;;;;5.82;52.45;100468.63;5026062;28;20045;-71
2021/03/14 09:41:59;;;;;;;7.10;1.27;;;;;;;6.26;51.02;100482.97;5019117;28;20044;-71
2021/03/14 09:44:43;;;;;;;8.45;1.27;;;;;;;5.90;51.72;100487.41;5035223;28;20480;-71
2021/03/14 09:47:14;;;;;;;11.50;0.95;;;;;;;5.30;53.06;100493.25;5021170;28;20048;-70
2021/03/14 09:50:04;;;;;;;6.30;1.15;;;;;;;5.25;52.90;100494.22;5031381;28;20578;-70
2021/03/14 09:52:34;;;;;;;6.60;0.70;;;;;;;5.67;52.32;100500.97;5030391;28;20225;-70
2021/03/14 09:55:00;;;;;;;6.18;0.88;;;;;;;5.47;52.27;100496.28;5021192;28;20041;-71
2021/03/14 09:57:26;;;;;;;9.27;0.70;;;;;;;5.86;51.90;100506.56;5035060;28;20091;-70
2021/03/14 09:59:58;;;;;;;;;;;;;;;6.07;52.02;100503.38;5038826;28;20039;-70
2021/03/14 10:02:42;;;;;;;8.80;1.45;;;;;;;6.15;51.34;100512.69;5032099;28;20022;-70
2021/03/14 10:05:21;;;;;;;9.75;1.33;;;;;;;6.70;50.18;100517.19;5033421;28;20068;-70
2021/03/14 10:07:52;;;;;;;11.60;1.30;;;;;;;7.63;47.79;100517.81;5030171;28;20067;-69
2021/03/14 10:10:19;;;;;;;21.48;1.67;;;;;;;7.84;47.32;100521.41;5035471;28;20047;-70
2021/03/14 10:13:03;;;;;;;9.98;1.60;;;;;;;7.30;47.68;100528.38;5041198;28;20119;-71
2021/03/14 10:15:30;;;;;;;10.15;1.08;;;;;;;6.24;49.88;100528.03;5032942;28;20039;-70
2021/03/14 10:18:03;;;;;;;10.68;0.47;;;;;;;6.27;49.66;100533.97;5037434;28;20111;-71
2021/03/14 10:20:30;;;;;;;10.00;0.93;;;;;;;7.42;47.77;100542.75;5024045;28;20025;-71
2021/03/14 10:23:05;;;;;;;11.43;0.60;;;;;;;7.20;47.74;100542.56;5031051;28;20124;-70
2021/03/14 10:26:07;;;;;;;5.90;1.27;;;;;;;7.14;47.32;100540.16;5033487;28;20128;-70
2021/03/14 10:28:43;;;;;;;9.05;1.17;;;;;;;6.69;47.91;100551.03;5038265;28;20029;-69
2021/03/14 10:31:22;;;;;;;8.15;0.85;;;;;;;6.07;49.09;100552.66;5019694;28;20079;-70
2021/03/14 10:33:50;;;;;;;5.63;0.70;;;;;;;6.80;48.74;100554.16;5036865;28;20792;-70
2021/03/14 10:36:18;;;;;;;13.70;1.10;;;;;;;7.64;46.24;100553.31;5029922;28;20037;-69
2021/03/14 10:38:59;;;;;;;11.40;1.00;;;;;;;7.08;47.13;100561.13;5032715;28;20541;-70
2021/03/14 10:41:39;;;;;;;14.50;0.75;;;;;;;7.45;46.27;100568.63;5033382;28;20037;-70
2021/03/14 10:44:07;;;;;;;7.25;0.70;;;;;;;8.30;45.13;100574.50;5032224;28;20090;-70
2021/03/14 10:46:50;;;;;;;11.38;1.52;;;;;;;6.87;46.76;100565.22;5030847;28;20799;-70
2021/03/14 10:49:18;;;;;;;13.18;1.92;;;;;;;7.32;45.73;100569.91;5021588;28;20043;-70
2021/03/14 10:51:53;;;;;;;4.15;0.98;;;;;;;8.74;43.61;100577.28;5024047;28;20094;-70
2021/03/14 10:54:30;;;;;;;3.03;0.60;;;;;;;8.28;43.64;100570.25;5036385;28;20037;-71
2021/03/14 10:56:59;;;;;;;6.28;0.50;;;;;;;8.22;43.92;100578.28;5039704;28;20550;-72
2021/03/14 10:59:32;;;;;;;5.00;0.32;;;;;;;9.49;41.91;100572.69;5032843;28;20029;-70
2021/03/14 11:02:22;;;;;;;7.57;1.05;;;;;;;9.06;42.24;100590.03;5018926;28;20068;-70
2021/03/14 11:04:54;;;;;;;13.48;0.95;;;;;;;8.91;42.56;100579.25;5049083;28;20440;-72
2021/03/14 11:07:25;;;;;;;6.07;0.88;;;;;;;8.94;41.64;100589.56;5019902;28;20029;-69
2021/03/14 11:10:13;;;;;;;9.10;0.93;;;;;;;8.97;41.78;100580.78;5017505;28;20064;-71
2021/03/14 11:12:48;;;;;;;12.48;0.82;;;;;;;8.32;43.51;100595.28;5034297;28;20087;-71
2021/03/14 11:15:26;;;;;;;7.18;1.20;;;;;;;8.85;43.22;100594.25;5039130;28;20550;-69
2021/03/14 11:18:04;;;;;;;6.95;0.45;;;;;;;9.00;42.00;100600.66;5036619;28;20049;-70
2021/03/14 11:21:06;;;;;;;10.63;0.85;;;;;;;8.60;42.49;100612.53;5028450;28;20048;-69
2021/03/14 11:23:36;;;;;;;9.43;0.75;;;;;;;9.15;41.67;100594.88;5018118;28;20021;-70
2021/03/14 11:26:02;;;;;;;5.35;0.38;;;;;;;9.58;40.47;100599.25;5038371;28;20049;-71
2021/03/14 11:28:29;;;;;;;4.47;0.38;;;;;;;10.53;41.58;100596.19;5031556;28;20779;-69
2021/03/14 11:30:57;;;;;;;5.57;0.63;;;;;;;10.81;39.52;100601.03;5026531;28;20063;-69
2021/03/14 11:33:25;;;;;;;9.68;0.60;;;;;;;10.39;37.78;100597.66;5035420;28;20030;-70
2021/03/14 11:36:00;;;;;;;6.03;0.60;;;;;;;9.47;39.45;100606.66;5033662;28;20087;-70
2021/03/14 11:38:44;;;;;;;4.47;0.55;;;;;;;10.75;38.09;100602.16;5030855;28;20057;-70
2021/03/14 11:41:33;;;;;;;6.85;0.82;;;;;;;11.25;36.47;100593.75;5027818;28;20045;-70
2021/03/14 11:44:08;;;;;;;5.30;0.50;;;;;;;11.12;37.77;100597.03;5032847;28;20049;-70
2021/03/14 11:46:35;;;;;;;5.88;0.20;;;;;;;10.70;37.57;100598.03;5035074;28;20489;-69
2021/03/14 11:49:19;;;;;;;5.18;0.85;;;;;;;10.58;37.21;100599.44;5032385;28;20049;-70
2021/03/14 11:51:48;;;;;;;3.42;0.30;;;;;;;11.08;35.76;100590.25;5033047;28;20070;-71